sensor_id;sensor_type;location;lat;lon;timestamp;pressure;altitude;pressure_sealevel;temperature;humidity
9474;BME280;8865;47.636;7.692;2022-09-28T00:00:37;96886.06;;;11.17;100.00
9474;BME280;8865;47.636;7.692;2022-09-28T00:03:06;96875.75;;;11.16;100.00
9474;BME280;8865;47.636;7.692;2022-09-28T00:05:33;96875.56;;;11.17;100.00
9474;BME280;8865;47.636;7.692;2022-09-28T00:07:59;96871.97;;;11.18;100.00
9474;BME280;8865;47.636;7.692;2022-09-28T00:10:25;96856.44;;;11.17;100.00
9474;BME280;8865;47.636;7.692;2022-09-28T00:12:51;96864.28;;;11.17;100.00
9474;BME280;8865;47.636;7.692;2022-09-28T00:15:20;96855.13;;;11.13;100.00
9474;BME280;8865;47.636;7.692;2022-09-28T00:17:47;96851.53;;;11.14;100.00
9474;BME280;8865;47.636;7.692;2022-09-28T00:20:13;96854.16;;;11.14;100.00
9474;BME280;8865;47.636;7.692;2022-09-28T00:22:39;96842.03;;;11.13;100.00
9474;BME280;8865;47.636;7.692;2022-09-28T00:25:05;96843.84;;;11.12;100.00
9474;BME280;8865;47.636;7.692;2022-09-28T00:27:32;96835.13;;;11.12;100.00
9474;BME280;8865;47.636;7.692;2022-09-28T00:29:58;96836.94;;;11.11;100.00
9474;BME280;8865;47.636;7.692;2022-09-28T00:32:24;96830.06;;;11.10;100.00
9474;BME280;8865;47.636;7.692;2022-09-28T00:34:51;96837.94;;;11.10;100.00
9474;BME280;8865;47.636;7.692;2022-09-28T00:37:18;96828.63;;;11.07;100.00
9474;BME280;8865;47.636;7.692;2022-09-28T00:39:45;96821.56;;;11.08;100.00
9474;BME280;8865;47.636;7.692;2022-09-28T00:42:22;96823.38;;;11.07;100.00
9474;BME280;8865;47.636;7.692;2022-09-28T00:50:07;96799.81;;;11.07;100.00
9474;BME280;8865;47.636;7.692;2022-09-28T00:52:39;96799.16;;;11.05;100.00
9474;BME280;8865;47.636;7.692;2022-09-28T00:55:12;96789.00;;;11.02;100.00
9474;BME280;8865;47.636;7.692;2022-09-28T00:57:40;96790.66;;;11.03;100.00
9474;BME280;8865;47.636;7.692;2022-09-28T01:00:08;96782.31;;;11.00;100.00
9474;BME280;8865;47.636;7.692;2022-09-28T01:02:35;96782.31;;;11.00;100.00
9474;BME280;8865;47.636;7.692;2022-09-28T01:05:02;96773.47;;;11.01;100.00
9474;BME280;8865;47.636;7.692;2022-09-28T01:07:30;96769.41;;;10.98;100.00
9474;BME280;8865;47.636;7.692;2022-09-28T01:09:56;96761.53;;;10.98;100.00
9474;BME280;8865;47.636;7.692;2022-09-28T01:12:23;96760.53;;;10.99;100.00
9474;BME280;8865;47.636;7.692;2022-09-28T01:14:49;96761.53;;;10.98;100.00
9474;BME280;8865;47.636;7.692;2022-09-28T01:20:11;96749.25;;;10.99;100.00
9474;BME280;8865;47.636;7.692;2022-09-28T01:25:53;96726.03;;;10.96;100.00
9474;BME280;8865;47.636;7.692;2022-09-28T01:28:24;96730.28;;;10.97;100.00
9474;BME280;8865;47.636;7.692;2022-09-28T01:31:12;96727.66;;;10.97;100.00
9474;BME280;8865;47.636;7.692;2022-09-28T01:33:50;96716.53;;;10.95;100.00
9474;BME280;8865;47.636;7.692;2022-09-28T01:36:24;96714.06;;;10.93;100.00
9474;BME280;8865;47.636;7.692;2022-09-28T01:38:54;96706.03;;;10.95;100.00
9474;BME280;8865;47.636;7.692;2022-09-28T01:41:24;96703.59;;;10.93;100.00
9474;BME280;8865;47.636;7.692;2022-09-28T01:43:56;96700.16;;;10.93;100.00
9474;BME280;8865;47.636;7.692;2022-09-28T01:46:39;96692.50;;;10.91;100.00
9474;BME280;8865;47.636;7.692;2022-09-28T01:49:28;96684.00;;;10.89;100.00
9474;BME280;8865;47.636;7.692;2022-09-28T01:54:32;96678.59;;;10.90;100.00
9474;BME280;8865;47.636;7.692;2022-09-28T01:57:25;96669.88;;;10.90;100.00
9474;BME280;8865;47.636;7.692;2022-09-28T02:00:08;96672.84;;;10.87;100.00
9474;BME280;8865;47.636;7.692;2022-09-28T02:02:42;96671.53;;;10.91;100.00
9474;BME280;8865;47.636;7.692;2022-09-28T02:05:15;96653.19;;;10.91;100.00
9474;BME280;8865;47.636;7.692;2022-09-28T02:07:57;96655.19;;;10.89;100.00
9474;BME280;8865;47.636;7.692;2022-09-28T02:10:32;96657.13;;;10.87;100.00
9474;BME280;8865;47.636;7.692;2022-09-28T02:13:04;96647.16;;;10.90;100.00
9474;BME280;8865;47.636;7.692;2022-09-28T02:15:43;96633.88;;;10.92;100.00
9474;BME280;8865;47.636;7.692;2022-09-28T02:18:11;96634.06;;;10.90;100.00
9474;BME280;8865;47.636;7.692;2022-09-28T02:20:39;96621.78;;;10.91;100.00
9474;BME280;8865;47.636;7.692;2022-09-28T02:23:10;96622.75;;;10.90;100.00
9474;BME280;8865;47.636;7.692;2022-09-28T02:25:43;96606.06;;;10.91;100.00
9474;BME280;8865;47.636;7.692;2022-09-28T02:28:11;96613.75;;;10.93;100.00
9474;BME280;8865;47.636;7.692;2022-09-28T02:30:39;96616.53;;;10.91;100.00
9474;BME280;8865;47.636;7.692;2022-09-28T02:33:16;96620.63;;;10.94;100.00
9474;BME280;8865;47.636;7.692;2022-09-28T02:35:43;96619.78;;;10.93;100.00
9474;BME280;8865;47.636;7.692;2022-09-28T02:38:10;96611.28;;;10.91;100.00
9474;BME280;8865;47.636;7.692;2022-09-28T02:40:36;96612.94;;;10.92;100.00
9474;BME280;8865;47.636;7.692;2022-09-28T02:43:26;96610.31;;;10.92;100.00
9474;BME280;8865;47.636;7.692;2022-09-28T02:46:18;96600.00;;;10.90;100.00
9474;BME280;8865;47.636;7.692;2022-09-28T02:51:31;96586.25;;;10.88;100.00
9474;BME280;8865;47.636;7.692;2022-09-28T02:54:18;96593.13;;;10.89;100.00
9474;BME280;8865;47.636;7.692;2022-09-28T03:09:53;96582.13;;;10.94;100.00
9474;BME280;8865;47.636;7.692;2022-09-28T03:12:23;96584.56;;;10.96;100.00
9474;BME280;8865;47.636;7.692;2022-09-28T03:15:09;96592.44;;;10.96;100.00
9474;BME280;8865;47.636;7.692;2022-09-28T03:17:37;96596.88;;;10.95;100.00
9474;BME280;8865;47.636;7.692;2022-09-28T03:20:04;96591.97;;;10.92;100.00
9474;BME280;8865;47.636;7.692;2022-09-28T03:22:30;96597.41;;;10.90;100.00
9474;BME280;8865;47.636;7.692;2022-09-28T03:24:56;96588.69;;;10.90;100.00
9474;BME280;8865;47.636;7.692;2022-09-28T03:27:22;96577.78;;;10.86;100.00
9474;BME280;8865;47.636;7.692;2022-09-28T03:29:48;96579.22;;;10.89;100.00
9474;BME280;8865;47.636;7.692;2022-09-28T03:32:14;96577.59;;;10.88;100.00
9474;BME280;8865;47.636;7.692;2022-09-28T03:34:40;96582.03;;;10.87;100.00
9474;BME280;8865;47.636;7.692;2022-09-28T03:37:06;96570.53;;;10.88;100.00
9474;BME280;8865;47.636;7.692;2022-09-28T03:39:32;96577.41;;;10.89;100.00
9474;BME280;8865;47.636;7.692;2022-09-28T03:41:59;96568.75;;;10.89;100.00
9474;BME280;8865;47.636;7.692;2022-09-28T03:44:25;96569.56;;;10.89;100.00
9474;BME280;8865;47.636;7.692;2022-09-28T03:46:51;96570.19;;;10.92;100.00
9474;BME280;8865;47.636;7.692;2022-09-28T03:49:17;96555.66;;;10.89;100.00
9474;BME280;8865;47.636;7.692;2022-09-28T03:51:43;96555.47;;;10.90;100.00
9474;BME280;8865;47.636;7.692;2022-09-28T03:54:09;96548.97;;;10.86;100.00
9474;BME280;8865;47.636;7.692;2022-09-28T03:56:35;96538.94;;;10.90;100.00
9474;BME280;8865;47.636;7.692;2022-09-28T03:59:02;96539.78;;;10.90;100.00
9474;BME280;8865;47.636;7.692;2022-09-28T04:01:28;96528.28;;;10.92;100.00
9474;BME280;8865;47.636;7.692;2022-09-28T04:03:54;96538.75;;;10.92;100.00
9474;BME280;8865;47.636;7.692;2022-09-28T04:06:24;96538.75;;;10.92;100.00
9474;BME280;8865;47.636;7.692;2022-09-28T04:08:50;96535.97;;;10.93;100.00
9474;BME280;8865;47.636;7.692;2022-09-28T04:11:16;96544.19;;;10.90;100.00
9474;BME280;8865;47.636;7.692;2022-09-28T04:13:42;96537.16;;;10.90;100.00
9474;BME280;8865;47.636;7.692;2022-09-28T04:16:09;96534.53;;;10.90;100.00
9474;BME280;8865;47.636;7.692;2022-09-28T04:18:36;96532.38;;;10.94;100.00
9474;BME280;8865;47.636;7.692;2022-09-28T04:21:06;96539.41;;;10.94;100.00
9474;BME280;8865;47.636;7.692;2022-09-28T04:23:35;96520.91;;;10.95;100.00
9474;BME280;8865;47.636;7.692;2022-09-28T04:26:08;96522.50;;;10.96;100.00
9474;BME280;8865;47.636;7.692;2022-09-28T04:28:36;96531.03;;;10.98;100.00
9474;BME280;8865;47.636;7.692;2022-09-28T04:31:21;96533.66;;;10.98;100.00
9474;BME280;8865;47.636;7.692;2022-09-28T04:33:48;96530.84;;;11.00;100.00
9474;BME280;8865;47.636;7.692;2022-09-28T04:36:14;96527.56;;;10.98;100.00
9474;BME280;8865;47.636;7.692;2022-09-28T04:38:40;96534.81;;;10.96;100.00
9474;BME280;8865;47.636;7.692;2022-09-28T04:41:06;96530.03;;;10.99;100.00
9474;BME280;8865;47.636;7.692;2022-09-28T04:43:32;96521.34;;;10.99;100.00
9474;BME280;8865;47.636;7.692;2022-09-28T04:46:00;96525.97;;;10.97;100.00
9474;BME280;8865;47.636;7.692;2022-09-28T04:48:27;96522.16;;;10.99;100.00
9474;BME280;8865;47.636;7.692;2022-09-28T04:50:55;96518.28;;;10.95;100.00
9474;BME280;8865;47.636;7.692;2022-09-28T04:53:21;96516.28;;;10.97;100.00
9474;BME280;8865;47.636;7.692;2022-09-28T04:55:59;96519.91;;;10.96;100.00
9474;BME280;8865;47.636;7.692;2022-09-28T04:58:25;96530.69;;;11.01;100.00
9474;BME280;8865;47.636;7.692;2022-09-28T05:00:52;96533.13;;;11.03;100.00
9474;BME280;8865;47.636;7.692;2022-09-28T05:03:19;96535.72;;;11.03;100.00
9474;BME280;8865;47.636;7.692;2022-09-28T05:05:46;96539.25;;;10.95;100.00
9474;BME280;8865;47.636;7.692;2022-09-28T05:08:12;96537.34;;;11.04;100.00
9474;BME280;8865;47.636;7.692;2022-09-28T05:10:38;96539.78;;;11.05;100.00
9474;BME280;8865;47.636;7.692;2022-09-28T05:13:11;96540.13;;;11.02;100.00
9474;BME280;8865;47.636;7.692;2022-09-28T05:15:40;96549.19;;;11.00;100.00
9474;BME280;8865;47.636;7.692;2022-09-28T05:18:07;96550.63;;;11.02;100.00
9474;BME280;8865;47.636;7.692;2022-09-28T05:20:33;96550.44;;;11.04;100.00
9474;BME280;8865;47.636;7.692;2022-09-28T05:23:04;96545.84;;;11.06;100.00
9474;BME280;8865;47.636;7.692;2022-09-28T05:25:30;96551.09;;;11.06;100.00
9474;BME280;8865;47.636;7.692;2022-09-28T05:27:56;96551.09;;;11.06;100.00
9474;BME280;8865;47.636;7.692;2022-09-28T05:30:22;96554.34;;;11.08;100.00
9474;BME280;8865;47.636;7.692;2022-09-28T05:32:48;96554.53;;;11.06;100.00
9474;BME280;8865;47.636;7.692;2022-09-28T05:35:18;96557.78;;;11.08;100.00
9474;BME280;8865;47.636;7.692;2022-09-28T05:37:44;96562.03;;;11.10;100.00
9474;BME280;8865;47.636;7.692;2022-09-28T05:40:11;96564.47;;;11.11;100.00
9474;BME280;8865;47.636;7.692;2022-09-28T05:42:37;96565.63;;;11.08;100.00
9474;BME280;8865;47.636;7.692;2022-09-28T05:45:03;96562.03;;;11.10;100.00
9474;BME280;8865;47.636;7.692;2022-09-28T05:47:36;96558.44;;;11.11;100.00
9474;BME280;8865;47.636;7.692;2022-09-28T05:50:03;96566.28;;;11.11;100.00
9474;BME280;8865;47.636;7.692;2022-09-28T05:52:29;96567.25;;;11.10;100.00
9474;BME280;8865;47.636;7.692;2022-09-28T05:54:55;96565.44;;;11.10;100.00
9474;BME280;8865;47.636;7.692;2022-09-28T05:57:21;96566.91;;;11.13;100.00
9474;BME280;8865;47.636;7.692;2022-09-28T06:02:34;96559.31;;;11.18;100.00
9474;BME280;8865;47.636;7.692;2022-09-28T06:05:00;96563.59;;;11.19;100.00
9474;BME280;8865;47.636;7.692;2022-09-28T06:07:26;96564.22;;;11.21;100.00
9474;BME280;8865;47.636;7.692;2022-09-28T06:09:52;96558.78;;;11.22;100.00
9474;BME280;8865;47.636;7.692;2022-09-28T06:12:38;96559.44;;;11.24;100.00
9474;BME280;8865;47.636;7.692;2022-09-28T06:15:05;96555.81;;;11.25;100.00
9474;BME280;8865;47.636;7.692;2022-09-28T06:17:31;96565.13;;;11.28;100.00
9474;BME280;8865;47.636;7.692;2022-09-28T06:19:57;96563.13;;;11.30;100.00
9474;BME280;8865;47.636;7.692;2022-09-28T06:22:23;96568.03;;;11.33;100.00
9474;BME280;8865;47.636;7.692;2022-09-28T06:24:49;96570.66;;;11.33;100.00
9474;BME280;8865;47.636;7.692;2022-09-28T06:27:15;96571.91;;;11.37;100.00
9474;BME280;8865;47.636;7.692;2022-09-28T06:29:42;96568.13;;;11.40;100.00
9474;BME280;8865;47.636;7.692;2022-09-28T06:32:08;96569.75;;;11.41;100.00
9474;BME280;8865;47.636;7.692;2022-09-28T06:34:34;96570.28;;;11.36;100.00
9474;BME280;8865;47.636;7.692;2022-09-28T06:37:00;96573.81;;;11.43;100.00
9474;BME280;8865;47.636;7.692;2022-09-28T06:39:29;96580.34;;;11.48;100.00
9474;BME280;8865;47.636;7.692;2022-09-28T06:41:55;96585.84;;;11.53;100.00
9474;BME280;8865;47.636;7.692;2022-09-28T06:44:21;96588.94;;;11.56;100.00
9474;BME280;8865;47.636;7.692;2022-09-28T06:46:47;96596.91;;;11.63;100.00
9474;BME280;8865;47.636;7.692;2022-09-28T06:49:13;96599.78;;;11.68;100.00
9474;BME280;8865;47.636;7.692;2022-09-28T06:51:39;96596.81;;;11.71;100.00
9474;BME280;8865;47.636;7.692;2022-09-28T06:54:05;96605.78;;;11.77;100.00
9474;BME280;8865;47.636;7.692;2022-09-28T06:56:31;96607.84;;;11.82;100.00
9474;BME280;8865;47.636;7.692;2022-09-28T06:58:57;96609.13;;;11.86;100.00
9474;BME280;8865;47.636;7.692;2022-09-28T07:01:23;96615.63;;;11.90;100.00
9474;BME280;8865;47.636;7.692;2022-09-28T07:03:49;96620.69;;;11.91;100.00
9474;BME280;8865;47.636;7.692;2022-09-28T07:06:15;96618.91;;;11.92;100.00
9474;BME280;8865;47.636;7.692;2022-09-28T07:08:42;96628.69;;;11.98;100.00
9474;BME280;8865;47.636;7.692;2022-09-28T07:11:07;96627.59;;;11.92;100.00
9474;BME280;8865;47.636;7.692;2022-09-28T07:13:33;96622.44;;;11.99;100.00
9474;BME280;8865;47.636;7.692;2022-09-28T07:16:00;96632.38;;;12.04;100.00
9474;BME280;8865;47.636;7.692;2022-09-28T07:18:27;96635.75;;;12.12;100.00
9474;BME280;8865;47.636;7.692;2022-09-28T07:20:54;96637.81;;;12.17;100.00
9474;BME280;8865;47.636;7.692;2022-09-28T07:23:22;96637.47;;;12.20;100.00
9474;BME280;8865;47.636;7.692;2022-09-28T07:25:48;96640.25;;;12.19;100.00
9474;BME280;8865;47.636;7.692;2022-09-28T07:28:15;96635.63;;;12.21;100.00
9474;BME280;8865;47.636;7.692;2022-09-28T07:30:42;96641.53;;;12.23;100.00
9474;BME280;8865;47.636;7.692;2022-09-28T07:33:13;96641.59;;;12.29;100.00
9474;BME280;8865;47.636;7.692;2022-09-28T07:35:40;96638.19;;;12.29;100.00
9474;BME280;8865;47.636;7.692;2022-09-28T07:38:09;96643.06;;;12.32;100.00
9474;BME280;8865;47.636;7.692;2022-09-28T07:40:35;96657.63;;;12.35;100.00
9474;BME280;8865;47.636;7.692;2022-09-28T07:43:20;96661.88;;;12.36;100.00
9474;BME280;8865;47.636;7.692;2022-09-28T07:45:48;96667.84;;;12.29;100.00
9474;BME280;8865;47.636;7.692;2022-09-28T07:48:15;96671.66;;;12.27;100.00
9474;BME280;8865;47.636;7.692;2022-09-28T07:50:46;96677.19;;;12.32;100.00
9474;BME280;8865;47.636;7.692;2022-09-28T07:53:13;96680.91;;;12.23;100.00
9474;BME280;8865;47.636;7.692;2022-09-28T07:55:39;96690.03;;;12.27;100.00
9474;BME280;8865;47.636;7.692;2022-09-28T07:58:05;96699.00;;;12.18;100.00
9474;BME280;8865;47.636;7.692;2022-09-28T08:00:31;96701.78;;;12.16;100.00
9474;BME280;8865;47.636;7.692;2022-09-28T08:02:58;96702.34;;;12.11;100.00
9474;BME280;8865;47.636;7.692;2022-09-28T08:05:25;96707.59;;;11.96;100.00
9474;BME280;8865;47.636;7.692;2022-09-28T08:07:53;96708.84;;;12.01;100.00
9474;BME280;8865;47.636;7.692;2022-09-28T08:10:22;96726.03;;;12.03;100.00
9474;BME280;8865;47.636;7.692;2022-09-28T08:12:53;96727.16;;;12.09;100.00
9474;BME280;8865;47.636;7.692;2022-09-28T08:15:19;96721.50;;;11.97;100.00
9474;BME280;8865;47.636;7.692;2022-09-28T08:17:47;96715.56;;;12.03;100.00
9474;BME280;8865;47.636;7.692;2022-09-28T08:20:13;96715.81;;;12.08;100.00
9474;BME280;8865;47.636;7.692;2022-09-28T08:23:08;96714.22;;;12.07;100.00
9474;BME280;8865;47.636;7.692;2022-09-28T08:25:34;96711.50;;;12.15;100.00
9474;BME280;8865;47.636;7.692;2022-09-28T08:28:04;96710.50;;;12.17;100.00
9474;BME280;8865;47.636;7.692;2022-09-28T08:30:33;96707.50;;;12.20;100.00
9474;BME280;8865;47.636;7.692;2022-09-28T08:32:59;96709.97;;;12.21;100.00
9474;BME280;8865;47.636;7.692;2022-09-28T08:35:25;96715.03;;;12.23;100.00
9474;BME280;8865;47.636;7.692;2022-09-28T08:37:52;96718.72;;;12.28;100.00
9474;BME280;8865;47.636;7.692;2022-09-28T08:40:21;96717.09;;;12.42;100.00
9474;BME280;8865;47.636;7.692;2022-09-28T08:42:57;96725.69;;;12.51;100.00
9474;BME280;8865;47.636;7.692;2022-09-28T08:45:27;96722.34;;;12.57;100.00
9474;BME280;8865;47.636;7.692;2022-09-28T08:48:25;96711.19;;;12.70;100.00
9474;BME280;8865;47.636;7.692;2022-09-28T08:51:19;96718.16;;;12.78;100.00
9474;BME280;8865;47.636;7.692;2022-09-28T08:56:35;96717.66;;;12.89;100.00
9474;BME280;8865;47.636;7.692;2022-09-28T08:59:10;96717.84;;;12.88;100.00
9474;BME280;8865;47.636;7.692;2022-09-28T09:01:43;96718.28;;;12.91;100.00
9474;BME280;8865;47.636;7.692;2022-09-28T09:04:11;96720.72;;;12.93;100.00
9474;BME280;8865;47.636;7.692;2022-09-28T09:10:10;96727.41;;;13.10;100.00
9474;BME280;8865;47.636;7.692;2022-09-28T09:23:55;96725.25;;;13.35;100.00
9474;BME280;8865;47.636;7.692;2022-09-28T09:32:42;96720.69;;;13.44;100.00
9474;BME280;8865;47.636;7.692;2022-09-28T09:46:41;96715.06;;;13.47;100.00
9474;BME280;8865;47.636;7.692;2022-09-28T09:49:19;96720.94;;;13.49;100.00
9474;BME280;8865;47.636;7.692;2022-09-28T09:54:17;96716.06;;;13.46;100.00
9474;BME280;8865;47.636;7.692;2022-09-28T09:56:51;96718.91;;;13.51;100.00
9474;BME280;8865;47.636;7.692;2022-09-28T09:59:26;96718.88;;;13.45;100.00
9474;BME280;8865;47.636;7.692;2022-09-28T10:02:01;96715.06;;;13.47;100.00
9474;BME280;8865;47.636;7.692;2022-09-28T10:04:40;96711.53;;;13.40;100.00
9474;BME280;8865;47.636;7.692;2022-09-28T10:07:16;96711.53;;;13.40;100.00
9474;BME280;8865;47.636;7.692;2022-09-28T10:09:45;96721.25;;;13.39;100.00
9474;BME280;8865;47.636;7.692;2022-09-28T10:12:20;96722.69;;;13.42;100.00
9474;BME280;8865;47.636;7.692;2022-09-28T10:14:46;96722.69;;;13.42;100.00
9474;BME280;8865;47.636;7.692;2022-09-28T10:17:16;96710.28;;;13.36;100.00
9474;BME280;8865;47.636;7.692;2022-09-28T10:19:47;96711.31;;;13.35;100.00
9474;BME280;8865;47.636;7.692;2022-09-28T10:22:16;96714.78;;;13.42;100.00
9474;BME280;8865;47.636;7.692;2022-09-28T10:24:47;96712.06;;;13.50;100.00
9474;BME280;8865;47.636;7.692;2022-09-28T10:27:35;96708.66;;;13.56;100.00
9474;BME280;8865;47.636;7.692;2022-09-28T10:32:49;96703.97;;;13.52;100.00
9474;BME280;8865;47.636;7.692;2022-09-28T10:38:22;96715.06;;;13.47;100.00
9474;BME280;8865;47.636;7.692;2022-09-28T10:40:59;96715.63;;;13.43;100.00
9474;BME280;8865;47.636;7.692;2022-09-28T10:43:33;96723.91;;;13.39;100.00
9474;BME280;8865;47.636;7.692;2022-09-28T10:46:22;96712.66;;;13.31;100.00
9474;BME280;8865;47.636;7.692;2022-09-28T10:49:00;96704.00;;;13.15;100.00
9474;BME280;8865;47.636;7.692;2022-09-28T10:51:43;96711.50;;;13.18;100.00
9474;BME280;8865;47.636;7.692;2022-09-28T10:54:29;96721.84;;;13.20;100.00
9474;BME280;8865;47.636;7.692;2022-09-28T10:57:08;96718.66;;;13.25;100.00
9474;BME280;8865;47.636;7.692;2022-09-28T10:59:47;96729.22;;;13.31;100.00
9474;BME280;8865;47.636;7.692;2022-09-28T11:02:26;96719.19;;;13.35;100.00
9474;BME280;8865;47.636;7.692;2022-09-28T11:05:17;96716.25;;;13.30;100.00
9474;BME280;8865;47.636;7.692;2022-09-28T11:07:50;96726.34;;;13.26;100.00
9474;BME280;8865;47.636;7.692;2022-09-28T11:10:25;96711.88;;;13.15;100.00
9474;BME280;8865;47.636;7.692;2022-09-28T11:13:11;96717.09;;;13.09;100.00
9474;BME280;8865;47.636;7.692;2022-09-28T11:15:55;96727.41;;;13.10;100.00
9474;BME280;8865;47.636;7.692;2022-09-28T11:18:42;96721.31;;;13.10;100.00
9474;BME280;8865;47.636;7.692;2022-09-28T11:21:39;96731.22;;;13.08;100.00
9474;BME280;8865;47.636;7.692;2022-09-28T11:24:41;96721.69;;;13.07;100.00
9474;BME280;8865;47.636;7.692;2022-09-28T11:27:21;96726.66;;;13.16;100.00
9474;BME280;8865;47.636;7.692;2022-09-28T11:30:03;96703.63;;;13.18;100.00
9474;BME280;8865;47.636;7.692;2022-09-28T11:32:38;96703.19;;;12.93;100.00
9474;BME280;8865;47.636;7.692;2022-09-28T11:35:27;96708.06;;;12.96;100.00
9474;BME280;8865;47.636;7.692;2022-09-28T11:38:22;96708.88;;;12.97;100.00
9474;BME280;8865;47.636;7.692;2022-09-28T11:50:03;96722.69;;;12.54;100.00
9474;BME280;8865;47.636;7.692;2022-09-28T11:56:12;96705.59;;;12.43;100.00
9474;BME280;8865;47.636;7.692;2022-09-28T11:58:53;96713.09;;;12.46;100.00
9474;BME280;8865;47.636;7.692;2022-09-28T12:01:50;96710.47;;;12.46;100.00
9474;BME280;8865;47.636;7.692;2022-09-28T12:04:30;96706.75;;;12.56;100.00
9474;BME280;8865;47.636;7.692;2022-09-28T12:07:18;96712.28;;;12.61;100.00
9474;BME280;8865;47.636;7.692;2022-09-28T12:10:09;96708.84;;;12.60;100.00
9474;BME280;8865;47.636;7.692;2022-09-28T12:13:22;96708.41;;;12.57;100.00
9474;BME280;8865;47.636;7.692;2022-09-28T12:16:01;96707.31;;;12.51;100.00
9474;BME280;8865;47.636;7.692;2022-09-28T12:24:30;96733.66;;;12.58;100.00
9474;BME280;8865;47.636;7.692;2022-09-28T12:30:24;96721.78;;;12.62;100.00
9474;BME280;8865;47.636;7.692;2022-09-28T12:33:12;96724.03;;;12.65;100.00
9474;BME280;8865;47.636;7.692;2022-09-28T12:44:31;96735.53;;;12.64;100.00
9474;BME280;8865;47.636;7.692;2022-09-28T12:53:51;96738.81;;;12.66;100.00
9474;BME280;8865;47.636;7.692;2022-09-28T12:56:38;96725.69;;;12.51;100.00
9474;BME280;8865;47.636;7.692;2022-09-28T13:10:15;96728.50;;;12.64;100.00
9474;BME280;8865;47.636;7.692;2022-09-28T13:16:30;96721.16;;;12.60;100.00
9474;BME280;8865;47.636;7.692;2022-09-28T13:19:12;96724.41;;;12.62;100.00
9474;BME280;8865;47.636;7.692;2022-09-28T13:21:51;96713.91;;;12.62;100.00
9474;BME280;8865;47.636;7.692;2022-09-28T13:24:34;96710.28;;;12.63;100.00
9474;BME280;8865;47.636;7.692;2022-09-28T13:27:08;96705.94;;;12.70;100.00
9474;BME280;8865;47.636;7.692;2022-09-28T13:29:36;96703.22;;;12.63;100.00
9474;BME280;8865;47.636;7.692;2022-09-28T13:32:05;96702.41;;;12.63;100.00
9474;BME280;8865;47.636;7.692;2022-09-28T13:34:35;96700.69;;;12.70;100.00
9474;BME280;8865;47.636;7.692;2022-09-28T13:39:47;96710.34;;;12.84;100.00
9474;BME280;8865;47.636;7.692;2022-09-28T13:55:56;96713.47;;;12.73;100.00
9474;BME280;8865;47.636;7.692;2022-09-28T14:01:25;96692.88;;;12.77;100.00
9474;BME280;8865;47.636;7.692;2022-09-28T14:06:26;96704.00;;;12.79;100.00
9474;BME280;8865;47.636;7.692;2022-09-28T14:14:01;96704.56;;;12.74;100.00
9474;BME280;8865;47.636;7.692;2022-09-28T14:16:31;96719.41;;;12.82;100.00
9474;BME280;8865;47.636;7.692;2022-09-28T14:25:13;96723.00;;;12.96;100.00
9474;BME280;8865;47.636;7.692;2022-09-28T14:32:37;96726.75;;;13.08;100.00
9474;BME280;8865;47.636;7.692;2022-09-28T14:35:06;96697.84;;;13.08;100.00
9474;BME280;8865;47.636;7.692;2022-09-28T14:37:41;96712.19;;;13.06;100.00
9474;BME280;8865;47.636;7.692;2022-09-28T14:40:58;96716.38;;;13.00;100.00
9474;BME280;8865;47.636;7.692;2022-09-28T14:48:42;96714.19;;;12.67;100.00
9474;BME280;8865;47.636;7.692;2022-09-28T14:54:02;96718.34;;;12.61;100.00
9474;BME280;8865;47.636;7.692;2022-09-28T14:56:45;96717.34;;;12.62;100.00
9474;BME280;8865;47.636;7.692;2022-09-28T14:59:19;96713.28;;;12.60;100.00
9474;BME280;8865;47.636;7.692;2022-09-28T15:02:06;96717.88;;;12.58;100.00
9474;BME280;8865;47.636;7.692;2022-09-28T15:04:44;96715.91;;;12.60;100.00
9474;BME280;8865;47.636;7.692;2022-09-28T15:09:57;96730.03;;;12.59;100.00
9474;BME280;8865;47.636;7.692;2022-09-28T15:12:26;96729.66;;;12.62;100.00
9474;BME280;8865;47.636;7.692;2022-09-28T15:17:29;96733.09;;;12.62;100.00
9474;BME280;8865;47.636;7.692;2022-09-28T15:20:26;96746.22;;;12.62;100.00
9474;BME280;8865;47.636;7.692;2022-09-28T15:22:56;96747.25;;;12.61;100.00
9474;BME280;8865;47.636;7.692;2022-09-28T15:25:26;96740.97;;;12.62;100.00
9474;BME280;8865;47.636;7.692;2022-09-28T15:28:00;96747.88;;;12.63;100.00
9474;BME280;8865;47.636;7.692;2022-09-28T15:30:34;96739.56;;;12.60;100.00
9474;BME280;8865;47.636;7.692;2022-09-28T15:33:02;96732.47;;;12.60;100.00
9474;BME280;8865;47.636;7.692;2022-09-28T15:38:17;96740.16;;;12.62;100.00
9474;BME280;8865;47.636;7.692;2022-09-28T15:40:43;96742.34;;;12.58;100.00
9474;BME280;8865;47.636;7.692;2022-09-28T15:43:28;96738.81;;;12.51;100.00
9474;BME280;8865;47.636;7.692;2022-09-28T15:46:12;96739.63;;;12.51;100.00
9474;BME280;8865;47.636;7.692;2022-09-28T15:48:58;96742.06;;;12.53;100.00
9474;BME280;8865;47.636;7.692;2022-09-28T15:51:26;96749.94;;;12.53;100.00
9474;BME280;8865;47.636;7.692;2022-09-28T15:54:10;96749.31;;;12.51;100.00
9474;BME280;8865;47.636;7.692;2022-09-28T15:56:58;96753.31;;;12.47;100.00
9474;BME280;8865;47.636;7.692;2022-09-28T16:02:14;96752.59;;;12.38;100.00
9474;BME280;8865;47.636;7.692;2022-09-28T16:04:59;96755.59;;;12.35;100.00
9474;BME280;8865;47.636;7.692;2022-09-28T16:07:52;96771.69;;;12.32;100.00
9474;BME280;8865;47.636;7.692;2022-09-28T16:11:34;96775.22;;;12.24;100.00
9474;BME280;8865;47.636;7.692;2022-09-28T16:16:29;96768.69;;;12.20;100.00
9474;BME280;8865;47.636;7.692;2022-09-28T16:18:58;96778.38;;;12.20;100.00
9474;BME280;8865;47.636;7.692;2022-09-28T16:21:35;96778.75;;;12.17;100.00
9474;BME280;8865;47.636;7.692;2022-09-28T16:24:02;96779.09;;;12.13;100.00
9474;BME280;8865;47.636;7.692;2022-09-28T16:26:32;96789.94;;;12.10;100.00
9474;BME280;8865;47.636;7.692;2022-09-28T16:28:59;96788.31;;;12.09;100.00
9474;BME280;8865;47.636;7.692;2022-09-28T16:31:29;96791.28;;;12.06;100.00
9474;BME280;8865;47.636;7.692;2022-09-28T16:34:28;96790.66;;;12.04;100.00
9474;BME280;8865;47.636;7.692;2022-09-28T16:36:55;96791.03;;;12.01;100.00
9474;BME280;8865;47.636;7.692;2022-09-28T16:39:21;96793.34;;;11.96;100.00
9474;BME280;8865;47.636;7.692;2022-09-28T16:41:51;96794.66;;;11.92;100.00
9474;BME280;8865;47.636;7.692;2022-09-28T16:44:23;96795.50;;;11.92;100.00